Time;durP1;ratioP1;P1;durP2;ratioP2;P2;SDS_P1;SDS_P2;PMS_P1;PMS_P2;Temp;Humidity;BMP_temperature;BMP_pressure;BME280_temperature;BME280_humidity;BME280_pressure;Samples;Min_cycle;Max_cycle;Signal;HPM_P1;HPM_P2
2023/08/03 00:01:25;;;;;;;2.08;0.80;;;;;;;;;;5073239;28;20070;-59
2023/08/03 00:03:51;;;;;;;3.53;1.25;;;;;;;;;;5074047;28;20457;-59
2023/08/03 00:06:17;;;;;;;8.32;1.63;;;;;;;;;;5073768;28;20107;-59
2023/08/03 00:08:43;;;;;;;4.35;1.40;;;;;;;;;;5073563;28;20033;-59
2023/08/03 00:11:09;;;;;;;1.45;0.55;;;;;;;;;;5073572;28;20039;-59
2023/08/03 00:13:35;;;;;;;2.40;1.00;;;;;;;;;;5072990;28;20028;-59
2023/08/03 00:16:01;;;;;;;3.03;1.00;;;;;;;;;;5073451;28;20355;-59
2023/08/03 00:18:27;;;;;;;5.15;1.30;;;;;;;;;;5073455;28;20021;-59
2023/08/03 00:20:53;;;;;;;4.03;1.48;;;;;;;;;;5073886;28;20046;-59
2023/08/03 00:23:19;;;;;;;5.35;1.23;;;;;;;;;;5073364;28;20052;-59
2023/08/03 00:25:45;;;;;;;2.90;0.80;;;;;;;;;;5073301;28;20028;-59
2023/08/03 00:28:11;;;;;;;4.47;1.20;;;;;;;;;;5073032;28;20032;-59
2023/08/03 00:30:37;;;;;;;1.95;1.08;;;;;;;;;;5073535;28;20029;-59
2023/08/03 00:33:03;;;;;;;5.28;0.98;;;;;;;;;;5073558;28;20046;-59
2023/08/03 00:35:28;;;;;;;3.10;1.10;;;;;;;;;;5072906;28;20512;-59
2023/08/03 00:37:55;;;;;;;1.83;0.95;;;;;;;;;;5073549;28;20048;-59
2023/08/03 00:40:20;;;;;;;2.45;1.40;;;;;;;;;;5073495;28;20028;-59
2023/08/03 00:42:46;;;;;;;5.15;1.27;;;;;;;;;;5073140;28;20020;-59
2023/08/03 00:45:12;;;;;;;2.30;0.80;;;;;;;;;;5073357;28;20107;-59
2023/08/03 00:47:39;;;;;;;6.25;2.05;;;;;;;;;;5073153;28;20029;-59
2023/08/03 00:50:06;;;;;;;3.53;1.15;;;;;;;;;;5073566;28;20108;-59
2023/08/03 00:52:34;;;;;;;5.80;1.30;;;;;;;;;;5073305;28;20604;-59
2023/08/03 00:55:00;;;;;;;3.22;1.58;;;;;;;;;;5072899;28;20055;-59
2023/08/03 00:57:26;;;;;;;3.63;1.00;;;;;;;;;;5073054;28;20021;-59
2023/08/03 00:59:52;;;;;;;2.55;1.02;;;;;;;;;;5072771;28;20034;-59
2023/08/03 01:02:18;;;;;;;2.10;1.17;;;;;;;;;;5073535;28;20021;-59
2023/08/03 01:04:44;;;;;;;3.20;1.27;;;;;;;;;;5072858;28;20036;-59
2023/08/03 01:07:09;;;;;;;11.45;1.65;;;;;;;;;;5073707;28;20029;-59
2023/08/03 01:09:35;;;;;;;2.30;0.70;;;;;;;;;;5072873;28;20090;-59
2023/08/03 01:12:01;;;;;;;3.60;1.20;;;;;;;;;;5072872;28;20031;-59
2023/08/03 01:14:27;;;;;;;1.88;1.08;;;;;;;;;;5072560;28;20032;-59
2023/08/03 01:16:54;;;;;;;1.88;0.80;;;;;;;;;;5073004;28;20047;-59
2023/08/03 01:19:20;;;;;;;3.58;1.30;;;;;;;;;;5073094;28;20522;-59
2023/08/03 01:21:47;;;;;;;5.70;1.35;;;;;;;;;;5072746;28;20020;-59
2023/08/03 01:24:13;;;;;;;2.92;1.23;;;;;;;;;;5074716;28;20037;-59
2023/08/03 01:26:40;;;;;;;3.35;1.23;;;;;;;;;;5076715;28;20398;-59
2023/08/03 01:29:06;;;;;;;5.00;1.30;;;;;;;;;;5076799;28;20115;-59
2023/08/03 01:31:33;;;;;;;3.97;1.65;;;;;;;;;;5075842;28;20423;-59
2023/08/03 01:33:59;;;;;;;1.35;0.60;;;;;;;;;;5076107;28;20450;-59
2023/08/03 01:36:25;;;;;;;2.58;0.90;;;;;;;;;;5076923;28;20048;-59
2023/08/03 01:38:55;;;;;;;3.67;1.17;;;;;;;;;;5076097;28;20046;-59
2023/08/03 01:41:22;;;;;;;3.85;0.88;;;;;;;;;;5076157;28;20024;-58
2023/08/03 01:43:52;;;;;;;4.07;1.00;;;;;;;;;;5076303;28;20020;-59
2023/08/03 01:46:18;;;;;;;;;;;;;;;;;;5076424;28;20054;-58
2023/08/03 01:48:44;;;;;;;2.97;1.05;;;;;;;;;;5076083;28;19908;-59
2023/08/03 01:51:10;;;;;;;1.83;0.75;;;;;;;;;;5075497;28;20047;-59
2023/08/03 01:53:36;;;;;;;3.83;0.55;;;;;;;;;;5075508;28;20020;-59
2023/08/03 01:56:02;;;;;;;1.40;0.70;;;;;;;;;;5075996;28;20047;-59
2023/08/03 01:58:28;;;;;;;4.70;1.10;;;;;;;;;;5075777;28;20040;-59
2023/08/03 02:00:54;;;;;;;2.00;0.75;;;;;;;;;;5075626;28;20016;-59
2023/08/03 02:03:20;;;;;;;3.65;0.90;;;;;;;;;;5075362;28;20013;-59
2023/08/03 02:05:46;;;;;;;4.07;0.93;;;;;;;;;;5075992;28;20040;-59
2023/08/03 02:08:12;;;;;;;2.75;1.23;;;;;;;;;;5075862;28;20481;-59
2023/08/03 02:10:38;;;;;;;5.43;1.27;;;;;;;;;;5076068;28;20123;-59
2023/08/03 02:13:04;;;;;;;3.92;0.93;;;;;;;;;;5075470;28;20067;-59
2023/08/03 02:15:30;;;;;;;6.90;1.08;;;;;;;;;;5075407;28;20466;-59
2023/08/03 02:17:56;;;;;;;2.58;1.05;;;;;;;;;;5075346;28;20074;-58
2023/08/03 02:20:22;;;;;;;2.40;0.85;;;;;;;;;;5076176;28;20358;-58
2023/08/03 02:22:48;;;;;;;1.73;0.50;;;;;;;;;;5075298;28;20016;-59
2023/08/03 02:25:15;;;;;;;2.08;0.60;;;;;;;;;;5075619;28;20039;-59
2023/08/03 02:27:41;;;;;;;1.48;0.73;;;;;;;;;;5075244;28;20067;-59
2023/08/03 02:30:09;;;;;;;3.60;0.80;;;;;;;;;;5075881;28;20065;-59
2023/08/03 02:32:35;;;;;;;1.98;0.95;;;;;;;;;;5075117;28;20131;-59
2023/08/03 02:35:01;;;;;;;2.03;0.57;;;;;;;;;;5073817;28;20067;-59
2023/08/03 02:37:27;;;;;;;2.00;0.85;;;;;;;;;;5075928;28;20056;-59
2023/08/03 02:39:53;;;;;;;2.08;0.82;;;;;;;;;;5075491;28;20377;-59
2023/08/03 02:42:19;;;;;;;4.70;1.23;;;;;;;;;;5074921;28;20028;-59
2023/08/03 02:44:45;;;;;;;3.35;0.80;;;;;;;;;;5074775;28;20029;-59
2023/08/03 02:47:10;;;;;;;1.90;0.85;;;;;;;;;;5074723;28;20025;-59
2023/08/03 02:49:36;;;;;;;3.58;1.20;;;;;;;;;;5074837;28;20103;-59
2023/08/03 02:52:02;;;;;;;5.90;0.88;;;;;;;;;;5075193;28;20029;-59
2023/08/03 02:54:28;;;;;;;5.10;0.98;;;;;;;;;;5074719;28;20036;-59
2023/08/03 02:56:54;;;;;;;6.97;1.50;;;;;;;;;;5075130;28;20024;-59
2023/08/03 02:59:20;;;;;;;4.78;1.20;;;;;;;;;;5075076;28;20052;-59
2023/08/03 03:01:46;;;;;;;4.60;1.55;;;;;;;;;;5074197;28;20021;-59
2023/08/03 03:04:12;;;;;;;4.78;1.10;;;;;;;;;;5074460;28;20020;-59
2023/08/03 03:06:38;;;;;;;1.40;0.50;;;;;;;;;;5074343;28;20029;-59
2023/08/03 03:09:05;;;;;;;13.52;1.52;;;;;;;;;;5074623;28;20367;-59
2023/08/03 03:11:30;;;;;;;3.45;1.45;;;;;;;;;;5074886;28;20029;-59
2023/08/03 03:13:56;;;;;;;3.40;1.17;;;;;;;;;;5074543;28;20462;-59
2023/08/03 03:16:25;;;;;;;3.70;0.98;;;;;;;;;;5074201;28;20064;-59
2023/08/03 03:18:51;;;;;;;2.20;0.93;;;;;;;;;;5074940;28;20036;-59
2023/08/03 03:21:17;;;;;;;6.22;1.30;;;;;;;;;;5074925;28;20024;-59
2023/08/03 03:23:43;;;;;;;1.52;0.68;;;;;;;;;;5074065;28;20024;-58
2023/08/03 03:26:09;;;;;;;8.15;1.92;;;;;;;;;;5073708;28;20047;-59
2023/08/03 03:28:35;;;;;;;1.73;0.57;;;;;;;;;;5074864;28;20024;-58
2023/08/03 03:31:01;;;;;;;2.28;1.08;;;;;;;;;;5074376;28;20465;-59
2023/08/03 03:33:27;;;;;;;2.53;1.02;;;;;;;;;;5074503;28;20344;-59
2023/08/03 03:35:53;;;;;;;1.77;0.70;;;;;;;;;;5074141;28;20027;-59
2023/08/03 03:38:19;;;;;;;2.17;0.85;;;;;;;;;;5074769;28;20151;-58
2023/08/03 03:40:45;;;;;;;3.33;0.98;;;;;;;;;;5074745;28;20030;-59
2023/08/03 03:43:11;;;;;;;3.67;1.35;;;;;;;;;;5073832;28;20017;-58
2023/08/03 03:45:37;;;;;;;4.00;0.77;;;;;;;;;;5073419;28;20028;-59
2023/08/03 03:48:03;;;;;;;3.08;0.98;;;;;;;;;;5073338;28;20036;-59
2023/08/03 03:50:29;;;;;;;3.85;1.48;;;;;;;;;;5074324;28;20041;-59
2023/08/03 03:52:55;;;;;;;3.40;0.95;;;;;;;;;;5074300;28;20020;-59
2023/08/03 03:55:21;;;;;;;2.55;0.55;;;;;;;;;;5074246;28;20486;-59
2023/08/03 03:57:47;;;;;;;2.00;0.93;;;;;;;;;;5073676;28;20027;-58
2023/08/03 04:00:13;;;;;;;3.72;1.52;;;;;;;;;;5073648;28;20028;-58
2023/08/03 04:02:39;;;;;;;3.08;0.88;;;;;;;;;;5073943;28;20363;-59
2023/08/03 04:05:05;;;;;;;4.82;1.05;;;;;;;;;;5073464;28;20024;-59
2023/08/03 04:07:31;;;;;;;3.33;0.85;;;;;;;;;;5073265;28;20029;-58
2023/08/03 04:09:57;;;;;;;2.95;0.93;;;;;;;;;;5073908;28;20059;-59
2023/08/03 04:12:22;;;;;;;1.45;0.57;;;;;;;;;;5073512;28;20020;-59
2023/08/03 04:14:48;;;;;;;7.55;1.48;;;;;;;;;;5073766;28;20103;-59
2023/08/03 04:17:14;;;;;;;2.53;0.90;;;;;;;;;;5073478;28;20385;-59
2023/08/03 04:19:40;;;;;;;5.03;1.02;;;;;;;;;;5073121;28;20054;-59
2023/08/03 04:22:06;;;;;;;5.43;0.70;;;;;;;;;;5073734;28;20033;-59
2023/08/03 04:24:32;;;;;;;4.53;0.70;;;;;;;;;;5074453;28;20115;-59
2023/08/03 04:26:58;;;;;;;3.30;0.80;;;;;;;;;;5073024;28;20107;-58
2023/08/03 04:29:24;;;;;;;2.47;1.25;;;;;;;;;;5074182;28;20028;-58
2023/08/03 04:31:50;;;;;;;2.90;0.70;;;;;;;;;;5072978;28;20021;-59
2023/08/03 04:34:16;;;;;;;2.72;0.70;;;;;;;;;;5073322;28;20025;-59
2023/08/03 04:36:43;;;;;;;2.05;0.93;;;;;;;;;;5073204;28;20045;-59
2023/08/03 04:39:08;;;;;;;1.88;0.40;;;;;;;;;;5073246;28;20467;-59
2023/08/03 04:41:34;;;;;;;2.03;0.77;;;;;;;;;;5073280;28;20032;-58
2023/08/03 04:44:00;;;;;;;1.05;0.47;;;;;;;;;;5073185;28;20028;-59
2023/08/03 04:46:27;;;;;;;2.03;0.43;;;;;;;;;;5073072;28;20028;-59
2023/08/03 04:48:53;;;;;;;2.50;0.50;;;;;;;;;;5073671;28;20033;-59
2023/08/03 04:51:19;;;;;;;1.88;0.52;;;;;;;;;;5072836;28;20027;-59
2023/08/03 04:53:45;;;;;;;1.55;0.55;;;;;;;;;;5073584;28;20052;-59
2023/08/03 04:56:11;;;;;;;1.42;0.45;;;;;;;;;;5073402;28;20020;-58
2023/08/03 04:58:37;;;;;;;1.42;0.52;;;;;;;;;;5074142;28;20021;-58
2023/08/03 05:01:03;;;;;;;0.85;0.30;;;;;;;;;;5076794;28;20020;-59
2023/08/03 05:03:29;;;;;;;1.20;0.50;;;;;;;;;;5076832;28;20027;-59
2023/08/03 05:05:55;;;;;;;2.40;0.90;;;;;;;;;;5076424;28;20029;-59
2023/08/03 05:08:24;;;;;;;2.30;0.85;;;;;;;;;;5076732;28;20471;-58
2023/08/03 05:10:50;;;;;;;2.20;0.55;;;;;;;;;;5077225;28;20087;-59
2023/08/03 05:13:17;;;;;;;2.42;0.45;;;;;;;;;;5076651;28;20094;-59
2023/08/03 05:15:44;;;;;;;2.20;0.63;;;;;;;;;;5076459;28;20021;-59
2023/08/03 05:18:10;;;;;;;1.67;0.68;;;;;;;;;;5077301;28;20033;-59
2023/08/03 05:20:36;;;;;;;1.05;0.60;;;;;;;;;;5077430;28;20458;-59
2023/08/03 05:23:03;;;;;;;2.13;0.40;;;;;;;;;;5076484;28;20458;-59
2023/08/03 05:25:29;;;;;;;3.28;0.65;;;;;;;;;;5076530;28;20115;-59
2023/08/03 05:27:55;;;;;;;0.60;0.28;;;;;;;;;;5076333;28;20102;-59
2023/08/03 05:30:21;;;;;;;4.70;0.43;;;;;;;;;;5075925;28;20028;-59
2023/08/03 05:32:47;;;;;;;1.83;0.55;;;;;;;;;;5076244;28;20020;-59
2023/08/03 05:35:14;;;;;;;2.00;0.63;;;;;;;;;;5076575;28;20059;-59
2023/08/03 05:37:41;;;;;;;3.75;0.70;;;;;;;;;;5076703;28;20045;-59
2023/08/03 05:40:07;;;;;;;5.65;0.80;;;;;;;;;;5076681;28;20052;-59
2023/08/03 05:42:36;;;;;;;1.90;0.40;;;;;;;;;;5076077;28;20017;-59
2023/08/03 05:45:06;;;;;;;1.73;0.80;;;;;;;;;;5075982;28;20332;-59
2023/08/03 05:47:32;;;;;;;2.22;0.50;;;;;;;;;;5075954;28;20426;-59
2023/08/03 05:49:57;;;;;;;1.33;0.50;;;;;;;;;;5076594;28;20043;-59
2023/08/03 05:52:23;;;;;;;4.20;1.10;;;;;;;;;;5075924;28;20021;-59
2023/08/03 05:54:49;;;;;;;1.00;0.40;;;;;;;;;;5076197;28;20017;-59
2023/08/03 05:57:18;;;;;;;1.73;0.47;;;;;;;;;;5075786;28;20021;-59
2023/08/03 05:59:44;;;;;;;1.77;0.47;;;;;;;;;;5076263;28;20042;-59
2023/08/03 06:02:25;;;;;;;1.50;0.52;;;;;;;;;;5075319;28;20111;-59
2023/08/03 06:04:51;;;;;;;4.43;1.02;;;;;;;;;;5076102;28;20032;-59
2023/08/03 06:07:17;;;;;;;2.05;0.75;;;;;;;;;;5075680;28;20078;-59
2023/08/03 06:09:43;;;;;;;1.80;0.70;;;;;;;;;;5076020;28;20112;-59
2023/08/03 06:12:14;;;;;;;2.05;0.75;;;;;;;;;;5075518;28;20099;-59
2023/08/03 06:14:40;;;;;;;1.73;0.75;;;;;;;;;;5076411;28;20028;-59
2023/08/03 06:17:06;;;;;;;0.90;0.35;;;;;;;;;;5075505;28;20455;-59
2023/08/03 06:19:32;;;;;;;3.10;0.60;;;;;;;;;;5076351;28;20469;-59
2023/08/03 06:22:02;;;;;;;0.70;0.30;;;;;;;;;;5075131;28;20024;-59
2023/08/03 06:24:28;;;;;;;2.83;0.43;;;;;;;;;;5075858;28;20024;-59
2023/08/03 06:26:54;;;;;;;4.72;0.65;;;;;;;;;;5075185;28;20381;-59
2023/08/03 06:29:19;;;;;;;1.48;0.40;;;;;;;;;;5074900;28;20067;-59
2023/08/03 06:31:47;;;;;;;1.50;0.70;;;;;;;;;;5074687;28;20107;-59
2023/08/03 06:34:13;;;;;;;1.40;0.60;;;;;;;;;;5075637;28;20077;-59
2023/08/03 06:36:41;;;;;;;2.10;0.52;;;;;;;;;;5074878;28;20123;-59
2023/08/03 06:39:07;;;;;;;1.08;0.22;;;;;;;;;;5075704;28;20032;-60
2023/08/03 06:41:35;;;;;;;1.83;0.47;;;;;;;;;;5074778;28;20138;-60
2023/08/03 06:44:01;;;;;;;1.15;0.40;;;;;;;;;;5074910;28;20205;-60
2023/08/03 06:46:28;;;;;;;4.13;0.90;;;;;;;;;;5074867;28;20020;-60
2023/08/03 06:48:54;;;;;;;2.38;0.73;;;;;;;;;;5074968;28;20024;-60
2023/08/03 06:51:20;;;;;;;0.80;0.40;;;;;;;;;;5074804;28;20107;-60
2023/08/03 06:53:47;;;;;;;2.63;0.40;;;;;;;;;;5074389;28;20124;-60
2023/08/03 06:56:13;;;;;;;1.65;0.22;;;;;;;;;;5074736;28;20051;-60
2023/08/03 06:58:39;;;;;;;3.55;0.90;;;;;;;;;;5075057;28;20066;-60
2023/08/03 07:01:05;;;;;;;4.43;0.75;;;;;;;;;;5074575;28;20025;-60
2023/08/03 07:03:31;;;;;;;1.13;0.32;;;;;;;;;;5075244;28;20025;-60
2023/08/03 07:05:57;;;;;;;1.55;0.60;;;;;;;;;;5074924;28;20032;-59
2023/08/03 07:08:23;;;;;;;1.80;0.65;;;;;;;;;;5074371;28;20561;-60
2023/08/03 07:10:49;;;;;;;1.30;0.50;;;;;;;;;;5074958;28;20056;-60
2023/08/03 07:13:15;;;;;;;0.30;0.20;;;;;;;;;;5075018;28;20535;-60
2023/08/03 07:15:41;;;;;;;2.47;0.63;;;;;;;;;;5074398;28;20056;-60
2023/08/03 07:18:07;;;;;;;1.77;0.45;;;;;;;;;;5074026;28;20021;-60
2023/08/03 07:20:36;;;;;;;1.38;0.60;;;;;;;;;;5074310;28;20020;-60
2023/08/03 07:23:02;;;;;;;0.95;0.40;;;;;;;;;;5074237;28;20115;-60
2023/08/03 07:25:28;;;;;;;1.25;0.47;;;;;;;;;;5074643;28;20581;-60
2023/08/03 07:27:54;;;;;;;1.42;0.30;;;;;;;;;;5073676;28;20118;-60
2023/08/03 07:30:20;;;;;;;1.75;0.70;;;;;;;;;;5074288;28;20020;-60
2023/08/03 07:32:46;;;;;;;1.50;0.43;;;;;;;;;;5073943;28;20024;-59
2023/08/03 07:35:13;;;;;;;1.00;0.30;;;;;;;;;;5074245;28;20082;-60
2023/08/03 07:37:39;;;;;;;1.10;0.50;;;;;;;;;;5056262;28;20040;-60
2023/08/03 07:40:05;;;;;;;2.00;0.30;;;;;;;;;;5074027;28;20025;-60
2023/08/03 07:42:31;;;;;;;1.23;0.20;;;;;;;;;;5073866;28;20028;-60
2023/08/03 07:44:57;;;;;;;0.55;0.30;;;;;;;;;;5073469;28;20066;-60
2023/08/03 07:47:23;;;;;;;0.80;0.30;;;;;;;;;;5073731;28;20119;-60
2023/08/03 07:49:49;;;;;;;1.70;0.52;;;;;;;;;;5073741;28;20023;-60
2023/08/03 07:52:15;;;;;;;3.42;0.77;;;;;;;;;;5074069;28;20063;-61
2023/08/03 07:54:41;;;;;;;1.63;0.60;;;;;;;;;;5074195;28;20063;-60
2023/08/03 07:57:09;;;;;;;1.33;0.50;;;;;;;;;;5073624;28;20466;-60
2023/08/03 07:59:35;;;;;;;1.80;0.60;;;;;;;;;;5074323;28;20028;-60
2023/08/03 08:02:01;;;;;;;3.38;0.40;;;;;;;;;;5073602;28;20028;-58
2023/08/03 08:04:27;;;;;;;1.05;0.45;;;;;;;;;;5073536;28;20024;-59
2023/08/03 08:06:53;;;;;;;1.65;0.98;;;;;;;;;;5073772;28;20115;-59
2023/08/03 08:09:19;;;;;;;1.38;0.60;;;;;;;;;;5073925;28;20021;-59
2023/08/03 08:11:45;;;;;;;1.17;0.50;;;;;;;;;;5074217;28;20094;-58
2023/08/03 08:14:11;;;;;;;0.80;0.20;;;;;;;;;;5073185;28;20025;-59
2023/08/03 08:16:37;;;;;;;0.40;0.15;;;;;;;;;;5073732;28;20037;-59
2023/08/03 08:19:04;;;;;;;1.48;0.47;;;;;;;;;;5073915;28;20017;-59
2023/08/03 08:21:30;;;;;;;1.48;0.20;;;;;;;;;;5073439;28;20104;-59
2023/08/03 08:23:56;;;;;;;0.75;0.13;;;;;;;;;;5073448;28;20472;-59
2023/08/03 08:26:22;;;;;;;2.15;0.50;;;;;;;;;;5073028;28;20109;-59
2023/08/03 08:28:48;;;;;;;0.88;0.20;;;;;;;;;;5073130;28;20046;-59
2023/08/03 08:31:14;;;;;;;0.88;0.35;;;;;;;;;;5073487;28;20056;-59
2023/08/03 08:33:40;;;;;;;1.13;0.30;;;;;;;;;;5075476;28;20033;-59
2023/08/03 08:36:06;;;;;;;2.22;0.50;;;;;;;;;;5077940;28;20102;-59
2023/08/03 08:38:32;;;;;;;0.60;0.28;;;;;;;;;;5078127;28;20024;-59
2023/08/03 08:41:05;;;;;;;2.05;0.38;;;;;;;;;;5077199;28;20044;-59
2023/08/03 08:43:31;;;;;;;2.33;0.70;;;;;;;;;;5077471;28;20029;-59
2023/08/03 08:45:57;;;;;;;3.90;0.63;;;;;;;;;;5076816;28;20116;-59
2023/08/03 08:48:23;;;;;;;0.60;0.20;;;;;;;;;;5077597;28;20465;-59
2023/08/03 08:50:49;;;;;;;2.17;0.30;;;;;;;;;;5076883;28;20112;-59
2023/08/03 08:53:15;;;;;;;1.65;0.40;;;;;;;;;;5076751;28;20020;-59
2023/08/03 08:55:41;;;;;;;1.00;0.47;;;;;;;;;;5077884;28;20357;-59
2023/08/03 08:58:07;;;;;;;1.27;0.40;;;;;;;;;;5077286;28;20103;-59
2023/08/03 09:00:41;;;;;;;1.67;0.30;;;;;;;;;;5077310;28;20024;-59
2023/08/03 09:03:07;;;;;;;1.42;0.32;;;;;;;;;;5076893;28;20017;-59
2023/08/03 09:05:33;;;;;;;0.75;0.40;;;;;;;;;;5076752;28;20024;-59
2023/08/03 09:08:21;;;;;;;1.35;0.43;;;;;;;;;;5077357;28;20068;-59
2023/08/03 09:10:48;;;;;;;0.82;0.20;;;;;;;;;;5077497;28;20047;-59
2023/08/03 09:13:37;;;;;;;1.05;0.30;;;;;;;;;;5076573;28;20115;-59
2023/08/03 09:16:03;;;;;;;0.47;0.30;;;;;;;;;;5077119;28;20029;-59
2023/08/03 09:18:31;;;;;;;3.97;0.52;;;;;;;;;;5076472;28;20021;-59
2023/08/03 09:21:13;;;;;;;0.90;0.20;;;;;;;;;;5076578;28;20034;-59
2023/08/03 09:23:39;;;;;;;1.00;0.25;;;;;;;;;;5076699;28;20397;-59
2023/08/03 09:26:05;;;;;;;0.75;0.10;;;;;;;;;;5076313;28;20119;-59
2023/08/03 09:28:38;;;;;;;0.93;0.22;;;;;;;;;;5076605;28;20032;-59
2023/08/03 09:31:05;;;;;;;1.10;0.28;;;;;;;;;;5076041;28;20055;-59
2023/08/03 09:33:31;;;;;;;2.28;0.40;;;;;;;;;;5076278;28;20074;-59
2023/08/03 09:36:11;;;;;;;1.35;0.35;;;;;;;;;;5075844;28;20061;-59
2023/08/03 09:38:37;;;;;;;0.95;0.35;;;;;;;;;;5076190;28;20352;-59
2023/08/03 09:41:03;;;;;;;1.88;0.47;;;;;;;;;;5075971;28;20052;-59
2023/08/03 09:43:29;;;;;;;1.23;0.45;;;;;;;;;;5076507;28;20016;-59
2023/08/03 09:45:56;;;;;;;1.73;0.30;;;;;;;;;;5075474;28;20029;-59
2023/08/03 09:48:22;;;;;;;2.45;0.38;;;;;;;;;;5076040;28;20514;-59
2023/08/03 09:50:51;;;;;;;1.13;0.30;;;;;;;;;;5076165;28;20028;-59
2023/08/03 09:53:19;;;;;;;0.50;0.20;;;;;;;;;;5075594;28;20021;-59
2023/08/03 09:55:57;;;;;;;1.83;0.60;;;;;;;;;;5075873;28;20034;-59
2023/08/03 09:58:28;;;;;;;3.90;0.47;;;;;;;;;;5076204;28;20025;-59
2023/08/03 10:00:54;;;;;;;1.40;0.57;;;;;;;;;;5076453;28;20035;-59
2023/08/03 10:03:22;;;;;;;0.50;0.10;;;;;;;;;;5076345;28;20052;-59
2023/08/03 10:05:47;;;;;;;1.13;0.30;;;;;;;;;;5076157;28;20032;-59
2023/08/03 10:08:13;;;;;;;0.98;0.40;;;;;;;;;;5075619;28;20024;-59
2023/08/03 10:10:42;;;;;;;1.27;0.22;;;;;;;;;;5075772;28;20027;-59
2023/08/03 10:13:08;;;;;;;1.15;0.32;;;;;;;;;;5075303;28;20025;-59
2023/08/03 10:15:35;;;;;;;0.32;0.13;;;;;;;;;;5076113;28;20044;-59
2023/08/03 10:18:01;;;;;;;1.48;0.43;;;;;;;;;;5057866;28;20025;-59
2023/08/03 10:20:27;;;;;;;3.63;0.50;;;;;;;;;;5076000;28;20370;-59
2023/08/03 10:23:12;;;;;;;0.85;0.30;;;;;;;;;;5076081;28;20024;-59
2023/08/03 10:25:54;;;;;;;0.98;0.35;;;;;;;;;;5075290;28;20032;-59
2023/08/03 10:28:21;;;;;;;0.52;0.20;;;;;;;;;;5075283;28;20027;-59
2023/08/03 10:31:07;;;;;;;0.65;0.30;;;;;;;;;;5075398;28;20123;-59
2023/08/03 10:33:51;;;;;;;1.15;0.43;;;;;;;;;;5074717;28;20120;-59
2023/08/03 10:36:26;;;;;;;2.95;0.30;;;;;;;;;;5074973;28;20052;-59
2023/08/03 10:38:53;;;;;;;0.28;0.10;;;;;;;;;;5074669;28;20417;-59
2023/08/03 10:41:22;;;;;;;0.10;0.05;;;;;;;;;;5074290;28;20017;-59
2023/08/03 10:44:09;;;;;;;0.43;0.13;;;;;;;;;;5074457;28;20017;-59
2023/08/03 10:46:42;;;;;;;1.45;0.32;;;;;;;;;;5074827;28;20118;-59
2023/08/03 10:49:23;;;;;;;0.77;0.30;;;;;;;;;;5074933;28;20371;-59
2023/08/03 10:51:52;;;;;;;4.43;0.17;;;;;;;;;;5074593;28;20031;-59
2023/08/03 10:54:19;;;;;;;1.27;0.32;;;;;;;;;;5075083;28;20099;-59
2023/08/03 10:57:04;;;;;;;0.75;0.35;;;;;;;;;;5073850;28;20517;-59
2023/08/03 10:59:38;;;;;;;1.25;0.47;;;;;;;;;;5075188;28;20347;-59
2023/08/03 11:02:18;;;;;;;0.32;0.15;;;;;;;;;;5074682;28;20031;-59
2023/08/03 11:04:44;;;;;;;1.00;0.30;;;;;;;;;;5075151;28;20025;-59
2023/08/03 11:07:11;;;;;;;2.20;0.50;;;;;;;;;;5074750;28;20032;-59
2023/08/03 11:09:37;;;;;;;1.30;0.38;;;;;;;;;;5074905;28;20442;-59
2023/08/03 11:12:04;;;;;;;0.00;0.00;;;;;;;;;;5074370;28;20054;-59
2023/08/03 11:14:30;;;;;;;1.20;0.17;;;;;;;;;;5075123;28;20029;-59
2023/08/03 11:16:56;;;;;;;1.67;0.30;;;;;;;;;;5073950;28;20028;-59
2023/08/03 11:19:23;;;;;;;1.05;0.35;;;;;;;;;;5074828;28;20078;-59
2023/08/03 11:21:49;;;;;;;1.05;0.28;;;;;;;;;;5074036;28;20028;-59
2023/08/03 11:24:15;;;;;;;0.90;0.20;;;;;;;;;;5074105;28;20043;-59
2023/08/03 11:26:41;;;;;;;0.35;0.10;;;;;;;;;;5074666;28;20028;-59
2023/08/03 11:29:08;;;;;;;0.43;0.10;;;;;;;;;;5074415;28;20029;-59
2023/08/03 11:31:34;;;;;;;1.20;0.30;;;;;;;;;;5074205;28;20370;-59
2023/08/03 11:34:00;;;;;;;1.25;0.30;;;;;;;;;;5074304;28;20017;-59
2023/08/03 11:36:26;;;;;;;0.57;0.32;;;;;;;;;;5074067;28;20459;-59
2023/08/03 11:38:52;;;;;;;0.40;0.13;;;;;;;;;;5074404;28;20112;-59
2023/08/03 11:41:20;;;;;;;0.95;0.45;;;;;;;;;;5073856;28;20023;-59
2023/08/03 11:43:49;;;;;;;1.35;0.40;;;;;;;;;;5073542;28;20112;-58
2023/08/03 11:46:15;;;;;;;0.47;0.22;;;;;;;;;;5074121;28;20060;-58
2023/08/03 11:48:44;;;;;;;1.30;0.32;;;;;;;;;;5074022;28;20090;-58
2023/08/03 11:51:10;;;;;;;0.85;0.30;;;;;;;;;;5073761;28;20111;-58
2023/08/03 11:53:37;;;;;;;1.05;0.20;;;;;;;;;;5074563;28;20027;-59
2023/08/03 11:56:04;;;;;;;2.45;0.35;;;;;;;;;;5073707;28;20377;-59
2023/08/03 11:58:30;;;;;;;2.92;0.32;;;;;;;;;;5073492;28;20048;-59
2023/08/03 12:01:03;;;;;;;0.65;0.20;;;;;;;;;;5073418;28;20367;-59
2023/08/03 12:03:31;;;;;;;0.85;0.20;;;;;;;;;;5073672;28;20029;-59
2023/08/03 12:06:00;;;;;;;0.20;0.10;;;;;;;;;;5073530;28;20050;-59
2023/08/03 12:08:26;;;;;;;0.43;0.15;;;;;;;;;;5073435;28;20017;-59
2023/08/03 12:10:56;;;;;;;0.65;0.25;;;;;;;;;;5073310;28;20485;-59
2023/08/03 12:13:22;;;;;;;1.10;0.45;;;;;;;;;;5073481;28;20020;-59
2023/08/03 12:15:48;;;;;;;1.20;0.40;;;;;;;;;;5073590;28;20370;-59
2023/08/03 12:18:14;;;;;;;1.08;0.28;;;;;;;;;;5073694;28;20098;-59
2023/08/03 12:20:40;;;;;;;0.82;0.30;;;;;;;;;;5073763;28;20463;-59
2023/08/03 12:23:06;;;;;;;0.40;0.15;;;;;;;;;;5073846;28;20042;-59
2023/08/03 12:25:32;;;;;;;1.02;0.22;;;;;;;;;;5073254;28;20020;-59
2023/08/03 12:27:58;;;;;;;1.17;0.43;;;;;;;;;;5073754;28;20040;-59
2023/08/03 12:30:24;;;;;;;1.75;1.45;;;;;;;;;;5073517;28;20027;-59
2023/08/03 12:32:50;;;;;;;1.15;0.52;;;;;;;;;;5073262;28;20017;-59
2023/08/03 12:35:16;;;;;;;1.63;0.10;;;;;;;;;;5073568;28;20028;-59
2023/08/03 12:37:42;;;;;;;2.55;0.63;;;;;;;;;;5073662;28;20401;-59
2023/08/03 12:40:08;;;;;;;1.42;0.50;;;;;;;;;;5073540;28;20027;-59
2023/08/03 12:42:34;;;;;;;0.75;0.25;;;;;;;;;;5073792;28;20013;-59
2023/08/03 12:45:00;;;;;;;0.52;0.20;;;;;;;;;;5073169;28;20035;-59
2023/08/03 12:47:26;;;;;;;0.60;0.30;;;;;;;;;;5073472;28;20097;-59
2023/08/03 12:49:53;;;;;;;2.08;0.30;;;;;;;;;;5073610;28;20020;-59
2023/08/03 12:52:19;;;;;;;0.65;0.30;;;;;;;;;;5073035;28;20033;-59
2023/08/03 12:54:45;;;;;;;2.60;0.50;;;;;;;;;;5073375;28;20020;-59
2023/08/03 12:57:10;;;;;;;0.95;0.20;;;;;;;;;;5073188;28;20025;-59
2023/08/03 12:59:36;;;;;;;2.10;0.20;;;;;;;;;;5073497;28;20048;-59
2023/08/03 13:02:02;;;;;;;0.63;0.30;;;;;;;;;;5073317;28;20042;-59
2023/08/03 13:04:28;;;;;;;2.83;0.47;;;;;;;;;;5073551;28;20031;-59
2023/08/03 13:06:54;;;;;;;1.15;0.22;;;;;;;;;;5072831;28;20028;-60
2023/08/03 13:09:20;;;;;;;0.63;0.25;;;;;;;;;;5073069;28;20370;-59
2023/08/03 13:11:46;;;;;;;2.08;0.50;;;;;;;;;;5072905;28;20051;-59
2023/08/03 13:14:12;;;;;;;3.05;0.45;;;;;;;;;;5073663;28;20119;-59
2023/08/03 13:16:38;;;;;;;1.10;0.40;;;;;;;;;;5073182;28;20032;-59
2023/08/03 13:19:04;;;;;;;0.73;0.22;;;;;;;;;;5073614;28;20025;-62
2023/08/03 13:21:30;;;;;;;1.42;0.30;;;;;;;;;;5076550;28;20069;-59
2023/08/03 13:23:56;;;;;;;0.55;0.30;;;;;;;;;;5076573;28;20036;-59
2023/08/03 13:26:22;;;;;;;0.57;0.20;;;;;;;;;;5077040;28;20077;-59
2023/08/03 13:28:50;;;;;;;1.10;0.40;;;;;;;;;;5077206;28;20020;-59
2023/08/03 13:31:19;;;;;;;0.68;0.20;;;;;;;;;;5076022;28;20479;-59
2023/08/03 13:33:45;;;;;;;0.80;0.30;;;;;;;;;;5077157;28;20024;-59
2023/08/03 13:36:14;;;;;;;1.50;0.38;;;;;;;;;;5076775;28;20036;-59
2023/08/03 13:38:40;;;;;;;0.73;0.20;;;;;;;;;;5076365;28;20020;-59
2023/08/03 13:41:06;;;;;;;1.58;0.28;;;;;;;;;;5076545;28;20021;-59
2023/08/03 13:43:32;;;;;;;0.52;0.20;;;;;;;;;;5076245;28;20024;-59
2023/08/03 13:45:57;;;;;;;0.50;0.10;;;;;;;;;;5075836;28;20035;-59
2023/08/03 13:48:23;;;;;;;0.63;0.22;;;;;;;;;;5076624;28;20032;-59
2023/08/03 13:50:49;;;;;;;1.38;0.35;;;;;;;;;;5076672;28;20027;-59
2023/08/03 13:53:15;;;;;;;0.75;0.25;;;;;;;;;;5076454;28;20113;-59
2023/08/03 13:55:41;;;;;;;0.93;0.30;;;;;;;;;;5075978;28;20458;-59
2023/08/03 13:58:07;;;;;;;1.30;0.50;;;;;;;;;;5076103;28;20020;-59
2023/08/03 14:00:37;;;;;;;0.88;0.45;;;;;;;;;;5076059;28;20050;-59
2023/08/03 14:03:04;;;;;;;0.40;0.20;;;;;;;;;;5076390;28;20026;-59
2023/08/03 14:05:30;;;;;;;0.60;0.13;;;;;;;;;;5076191;28;20032;-59
2023/08/03 14:07:56;;;;;;;1.48;0.47;;;;;;;;;;5075668;28;20080;-59
2023/08/03 14:10:21;;;;;;;0.90;0.50;;;;;;;;;;5076009;28;20354;-59
2023/08/03 14:12:48;;;;;;;2.13;0.40;;;;;;;;;;5075394;28;20516;-59
2023/08/03 14:15:14;;;;;;;1.73;0.40;;;;;;;;;;5076126;28;20032;-59
2023/08/03 14:17:40;;;;;;;2.33;0.30;;;;;;;;;;5076061;28;20016;-59
2023/08/03 14:20:07;;;;;;;1.05;0.43;;;;;;;;;;5075541;28;20066;-59
2023/08/03 14:22:33;;;;;;;0.50;0.15;;;;;;;;;;5075486;28;20083;-59
2023/08/03 14:24:59;;;;;;;0.30;0.10;;;;;;;;;;5076124;28;20052;-59
2023/08/03 14:27:25;;;;;;;1.13;0.38;;;;;;;;;;5075244;28;20072;-59
2023/08/03 14:29:51;;;;;;;3.22;0.20;;;;;;;;;;5075794;28;20025;-59
2023/08/03 14:32:17;;;;;;;1.00;0.22;;;;;;;;;;5074026;28;20025;-59
2023/08/03 14:34:43;;;;;;;2.35;0.70;;;;;;;;;;5075782;28;20067;-59
2023/08/03 14:37:09;;;;;;;0.28;0.10;;;;;;;;;;5075237;28;20055;-59
2023/08/03 14:39:35;;;;;;;0.65;0.20;;;;;;;;;;5075674;28;20025;-59
2023/08/03 14:42:01;;;;;;;1.58;0.45;;;;;;;;;;5075312;28;20050;-60